createdAt,value
2023-05-10T00:01:30.226Z,99.82
2023-05-10T00:03:33.658Z,99.84
2023-05-10T00:05:37.219Z,99.48
2023-05-10T00:07:45.581Z,99.74
2023-05-10T00:09:48.953Z,99.72
2023-05-10T00:11:52.317Z,99.65
2023-05-10T00:13:55.693Z,99.91
2023-05-10T00:15:59.262Z,100.00
2023-05-10T00:18:02.754Z,99.96
2023-05-10T00:20:07.338Z,100.00
2023-05-10T00:22:11.387Z,100.00
2023-05-10T00:24:16.054Z,100.00
2023-05-10T00:26:19.389Z,100.00
2023-05-10T00:28:29.400Z,100.00
2023-05-10T00:30:33.674Z,100.00
2023-05-10T00:32:38.808Z,100.00
2023-05-10T00:34:42.187Z,99.86
2023-05-10T00:36:45.499Z,99.95
2023-05-10T00:38:48.869Z,99.86
2023-05-10T00:40:53.629Z,99.86
2023-05-10T00:43:03.935Z,99.76
2023-05-10T00:45:09.004Z,99.60
2023-05-10T00:47:12.830Z,99.21
2023-05-10T00:49:16.447Z,99.37
2023-05-10T00:51:20.146Z,99.19
2023-05-10T00:53:23.994Z,100.00
2023-05-10T00:55:27.614Z,100.00
2023-05-10T00:57:32.684Z,100.00
2023-05-10T00:59:36.183Z,100.00
2023-05-10T01:01:40.070Z,100.00
2023-05-10T01:03:43.744Z,99.75
2023-05-10T01:05:47.047Z,99.32
2023-05-10T01:07:50.510Z,99.48
2023-05-10T01:09:53.958Z,99.87
2023-05-10T01:11:58.547Z,99.75
2023-05-10T01:14:04.431Z,99.70
2023-05-10T01:16:08.816Z,99.53
2023-05-10T01:18:12.418Z,99.62
2023-05-10T01:20:17.244Z,99.39
2023-05-10T01:22:57.303Z,100.00
2023-05-10T01:25:18.171Z,99.56
2023-05-10T01:27:53.391Z,99.52
2023-05-10T01:30:34.202Z,100.00
2023-05-10T01:32:45.796Z,100.00
2023-05-10T01:34:58.368Z,100.00
2023-05-10T01:37:08.038Z,100.00
2023-05-10T01:39:17.887Z,100.00
2023-05-10T01:41:30.236Z,99.78
2023-05-10T01:43:44.793Z,99.86
2023-05-10T01:45:56.807Z,99.77
2023-05-10T01:48:08.271Z,99.33
2023-05-10T01:50:17.148Z,99.06
2023-05-10T01:52:24.474Z,98.86
2023-05-10T01:54:30.763Z,98.69
2023-05-10T01:56:36.984Z,98.19
2023-05-10T01:58:43.187Z,98.21
2023-05-10T02:00:49.197Z,98.50
2023-05-10T02:02:54.763Z,98.19
2023-05-10T02:05:01.235Z,98.05
2023-05-10T02:07:05.562Z,98.02
2023-05-10T02:09:11.057Z,97.78
2023-05-10T02:11:16.033Z,97.62
2023-05-10T02:13:20.677Z,97.75
2023-05-10T02:15:26.661Z,97.62
2023-05-10T02:17:32.498Z,97.17
2023-05-10T02:19:37.940Z,97.33
2023-05-10T02:21:44.214Z,97.27
2023-05-10T02:23:50.341Z,97.27
2023-05-10T02:25:56.180Z,96.92
2023-05-10T02:28:02.001Z,96.86
2023-05-10T02:30:09.135Z,96.33
2023-05-10T02:32:14.068Z,96.75
2023-05-10T02:34:17.591Z,96.71
2023-05-10T02:36:23.441Z,96.65
2023-05-10T02:38:29.319Z,96.70
2023-05-10T02:40:35.476Z,96.45
2023-05-10T02:42:40.606Z,96.22
2023-05-10T02:44:45.283Z,96.39
2023-05-10T02:46:49.148Z,96.35
2023-05-10T02:48:52.617Z,96.44
2023-05-10T02:50:58.108Z,96.45
2023-05-10T02:53:04.153Z,96.29
2023-05-10T02:55:11.956Z,96.19
2023-05-10T02:57:20.226Z,96.16
2023-05-10T02:59:24.022Z,96.01
2023-05-10T03:01:27.548Z,95.98
2023-05-10T03:03:30.944Z,95.92
2023-05-10T03:05:34.284Z,96.14
2023-05-10T03:07:40.227Z,96.03
2023-05-10T03:09:44.232Z,95.96
2023-05-10T03:11:58.684Z,95.81
2023-05-10T03:14:13.349Z,95.79
2023-05-10T03:16:21.977Z,95.90
2023-05-10T03:18:31.412Z,96.13
2023-05-10T03:20:38.490Z,96.03
2023-05-10T03:22:47.479Z,95.69
2023-05-10T03:24:51.542Z,95.85
2023-05-10T03:27:00.946Z,95.69
2023-05-10T03:29:07.002Z,95.84
2023-05-10T03:31:11.104Z,95.94
2023-05-10T03:33:15.179Z,95.39
2023-05-10T03:35:21.819Z,95.51
2023-05-10T03:37:25.250Z,95.64
2023-05-10T03:39:28.671Z,95.46
2023-05-10T03:41:35.546Z,95.40
2023-05-10T03:43:42.121Z,95.33
2023-05-10T03:45:45.561Z,95.25
2023-05-10T03:47:49.032Z,95.60
2023-05-10T03:49:52.619Z,95.74
2023-05-10T03:51:56.022Z,95.79
2023-05-10T03:53:59.387Z,95.92
2023-05-10T03:56:02.820Z,95.77
2023-05-10T03:58:06.232Z,96.12
2023-05-10T04:00:13.625Z,95.94
2023-05-10T04:02:19.923Z,95.76
2023-05-10T04:04:24.122Z,95.82
2023-05-10T04:06:27.604Z,95.81
2023-05-10T04:08:32.523Z,95.79
2023-05-10T04:10:36.079Z,95.53
2023-05-10T04:12:39.402Z,95.65
2023-05-10T04:14:43.101Z,95.58
2023-05-10T04:16:47.818Z,95.28
2023-05-10T04:18:54.374Z,95.48
2023-05-10T04:20:57.856Z,95.55
2023-05-10T04:23:05.153Z,95.69
2023-05-10T04:25:11.772Z,95.85
2023-05-10T04:27:15.258Z,95.79
2023-05-10T04:29:18.563Z,95.90
2023-05-10T04:31:22.550Z,96.02
2023-05-10T04:33:27.225Z,96.22
2023-05-10T04:35:30.640Z,96.27
2023-05-10T04:37:34.011Z,96.99
2023-05-10T04:39:37.341Z,97.36
2023-05-10T04:41:40.738Z,97.52
2023-05-10T04:43:44.067Z,97.65
2023-05-10T04:45:47.348Z,97.38
2023-05-10T04:47:50.776Z,97.50
2023-05-10T04:49:55.485Z,97.53
2023-05-10T04:51:58.818Z,98.29
2023-05-10T04:54:06.405Z,98.47
2023-05-10T04:56:10.217Z,98.84
2023-05-10T04:58:13.539Z,98.62
2023-05-10T05:00:17.958Z,98.10
2023-05-10T05:02:21.490Z,98.69
2023-05-10T05:04:25.035Z,98.94
2023-05-10T05:06:29.878Z,99.55
2023-05-10T05:08:33.245Z,99.66
2023-05-10T05:10:36.592Z,99.52
2023-05-10T05:12:39.989Z,99.25
2023-05-10T05:14:43.348Z,99.13
2023-05-10T05:16:46.646Z,99.39
2023-05-10T05:18:49.970Z,99.63
2023-05-10T05:20:53.290Z,99.46
2023-05-10T05:22:57.991Z,100.00
2023-05-10T05:25:03.370Z,100.00
2023-05-10T05:27:06.802Z,99.40
2023-05-10T05:29:10.247Z,99.08
2023-05-10T05:31:13.608Z,99.11
2023-05-10T05:33:17.589Z,98.46
2023-05-10T05:35:20.926Z,98.29
2023-05-10T05:37:25.443Z,98.01
2023-05-10T05:39:30.257Z,98.27
2023-05-10T05:41:33.550Z,98.11
2023-05-10T05:43:38.349Z,97.64
2023-05-10T05:45:42.038Z,97.60
2023-05-10T05:47:45.495Z,97.58
2023-05-10T05:49:48.775Z,97.47
2023-05-10T05:51:52.104Z,97.46
2023-05-10T05:53:55.551Z,97.19
2023-05-10T05:56:01.084Z,97.39
2023-05-10T05:58:04.620Z,97.01
2023-05-10T06:00:09.421Z,96.53
2023-05-10T06:02:18.486Z,96.77
2023-05-10T06:04:22.072Z,96.56
2023-05-10T06:06:25.561Z,96.23
2023-05-10T06:08:28.951Z,96.08
2023-05-10T06:10:32.456Z,95.89
2023-05-10T06:12:37.214Z,95.30
2023-05-10T06:14:40.582Z,95.44
2023-05-10T06:16:44.127Z,95.19
2023-05-10T06:18:47.594Z,95.79
2023-05-10T06:20:51.561Z,95.48
2023-05-10T06:22:54.842Z,95.68
2023-05-10T06:24:58.223Z,95.29
2023-05-10T06:27:05.091Z,95.46
2023-05-10T06:29:09.802Z,94.63
2023-05-10T06:31:13.360Z,94.72
2023-05-10T06:33:17.542Z,94.77
2023-05-10T06:35:21.070Z,94.64
2023-05-10T06:37:24.405Z,95.01
2023-05-10T06:39:27.717Z,95.48
2023-05-10T06:41:31.216Z,95.33
2023-05-10T06:43:34.673Z,95.23
2023-05-10T06:45:39.433Z,95.06
2023-05-10T06:47:43.327Z,94.88
2023-05-10T06:49:46.798Z,94.93
2023-05-10T06:51:50.354Z,95.63
2023-05-10T06:53:53.878Z,96.45
2023-05-10T06:55:57.321Z,96.62
2023-05-10T06:58:00.823Z,97.06
2023-05-10T07:00:06.111Z,97.36
2023-05-10T07:02:11.081Z,98.11
2023-05-10T07:04:14.949Z,98.57
2023-05-10T07:06:29.389Z,98.88
2023-05-10T07:08:36.742Z,99.27
2023-05-10T07:10:40.067Z,98.77
2023-05-10T07:12:43.465Z,99.31
2023-05-10T07:14:47.552Z,99.26
2023-05-10T07:16:50.998Z,99.21
2023-05-10T07:18:55.660Z,99.80
2023-05-10T07:20:59.402Z,100.00
2023-05-10T07:23:03.130Z,100.00
2023-05-10T07:25:07.505Z,100.00
2023-05-10T07:27:11.237Z,100.00
2023-05-10T07:29:14.807Z,100.00
2023-05-10T07:31:18.092Z,100.00
2023-05-10T07:33:21.640Z,99.75
2023-05-10T07:35:26.340Z,99.72
2023-05-10T07:37:29.659Z,98.96
2023-05-10T07:39:32.990Z,99.38
2023-05-10T07:41:36.361Z,99.63
2023-05-10T07:43:39.711Z,99.35
2023-05-10T07:45:43.271Z,99.20
2023-05-10T07:47:46.759Z,99.09
2023-05-10T07:49:50.134Z,99.17
2023-05-10T07:51:54.796Z,98.83
2023-05-10T07:53:58.897Z,98.77
2023-05-10T07:56:23.650Z,98.64
2023-05-10T07:58:27.229Z,98.83
2023-05-10T08:00:30.682Z,98.70
2023-05-10T08:02:34.884Z,98.62
2023-05-10T08:04:38.456Z,98.38
2023-05-10T08:06:42.470Z,98.46
2023-05-10T08:08:50.207Z,97.88
2023-05-10T08:10:53.537Z,98.33
2023-05-10T08:12:56.853Z,98.33
2023-05-10T08:15:00.149Z,97.69
2023-05-10T08:17:03.408Z,97.85
2023-05-10T08:19:06.882Z,97.80
2023-05-10T08:21:12.189Z,97.62
2023-05-10T08:23:15.501Z,97.49
2023-05-10T08:25:20.250Z,97.21
2023-05-10T08:27:23.609Z,97.16
2023-05-10T08:29:28.550Z,97.17
2023-05-10T08:31:34.020Z,95.99
2023-05-10T08:33:37.421Z,95.22
2023-05-10T08:35:40.855Z,95.66
2023-05-10T08:37:44.199Z,95.74
2023-05-10T08:39:48.897Z,95.39
2023-05-10T08:41:56.212Z,95.78
2023-05-10T08:44:00.131Z,95.06
2023-05-10T08:46:03.748Z,94.93
2023-05-10T08:48:09.266Z,95.08
2023-05-10T08:50:13.536Z,94.99
2023-05-10T08:52:18.386Z,93.86
2023-05-10T08:54:21.795Z,94.75
2023-05-10T08:56:26.038Z,94.33
2023-05-10T08:58:31.785Z,94.23
2023-05-10T09:00:35.945Z,94.28
2023-05-10T09:02:39.547Z,94.02
2023-05-10T09:04:43.027Z,94.06
2023-05-10T09:06:46.340Z,93.58
2023-05-10T09:08:49.971Z,92.49
2023-05-10T09:10:53.705Z,92.35
2023-05-10T09:12:59.621Z,92.43
2023-05-10T09:15:06.892Z,92.53
2023-05-10T09:17:11.677Z,92.39
2023-05-10T09:19:15.771Z,92.27
2023-05-10T09:21:19.258Z,92.11
2023-05-10T09:23:22.982Z,92.21
2023-05-10T09:25:26.354Z,91.05
2023-05-10T09:27:29.722Z,91.23
2023-05-10T09:29:41.503Z,91.47
2023-05-10T09:31:52.171Z,90.90
2023-05-10T09:33:56.063Z,91.60
2023-05-10T09:36:09.237Z,91.48
2023-05-10T09:38:12.562Z,91.65
2023-05-10T09:40:17.203Z,92.90
2023-05-10T09:42:20.769Z,92.86
2023-05-10T09:44:24.044Z,92.67
2023-05-10T09:46:27.514Z,93.23
2023-05-10T09:48:32.378Z,92.95
2023-05-10T09:50:36.009Z,93.32
2023-05-10T09:52:49.282Z,93.58
2023-05-10T09:54:55.744Z,94.18
2023-05-10T09:56:59.170Z,94.74
2023-05-10T09:59:05.641Z,95.10
2023-05-10T10:01:13.028Z,94.24
2023-05-10T10:03:17.606Z,93.99
2023-05-10T10:05:22.503Z,93.22
2023-05-10T10:07:27.250Z,92.65
2023-05-10T10:09:31.103Z,93.12
2023-05-10T10:11:35.919Z,93.52
2023-05-10T10:13:39.400Z,93.34
2023-05-10T10:15:45.046Z,92.92
2023-05-10T10:17:50.144Z,91.64
2023-05-10T10:19:53.622Z,91.54
2023-05-10T10:21:59.960Z,90.79
2023-05-10T10:24:06.292Z,90.55
2023-05-10T10:26:10.016Z,90.04
2023-05-10T10:28:28.250Z,89.77
2023-05-10T10:30:38.008Z,89.87
2023-05-10T10:33:05.616Z,89.48
2023-05-10T10:35:13.891Z,89.52
2023-05-10T10:37:18.898Z,89.21
2023-05-10T10:39:22.826Z,88.75
2023-05-10T10:41:31.128Z,87.72
2023-05-10T10:43:34.572Z,87.71
2023-05-10T10:45:42.344Z,87.83
2023-05-10T10:47:47.204Z,88.80
2023-05-10T10:49:52.602Z,88.99
2023-05-10T10:52:15.013Z,88.82
2023-05-10T10:54:29.782Z,88.06
2023-05-10T10:56:34.359Z,87.74
2023-05-10T10:58:40.092Z,87.43
2023-05-10T11:00:45.572Z,87.44
2023-05-10T11:02:50.772Z,86.79
2023-05-10T11:04:54.179Z,85.87
2023-05-10T11:07:18.641Z,83.76
2023-05-10T11:09:26.908Z,84.11
2023-05-10T11:11:31.124Z,83.29
2023-05-10T11:13:36.928Z,83.01
2023-05-10T11:15:41.994Z,83.09
2023-05-10T11:17:48.357Z,82.97
2023-05-10T11:20:11.016Z,82.50
2023-05-10T11:22:15.699Z,81.92
2023-05-10T11:24:20.555Z,81.65
2023-05-10T11:26:26.591Z,81.61
2023-05-10T11:28:30.322Z,80.80
2023-05-10T11:30:33.963Z,81.54
2023-05-10T11:32:39.161Z,81.77
2023-05-10T11:34:42.760Z,82.84
2023-05-10T11:36:52.796Z,83.42
2023-05-10T11:38:57.341Z,84.15
2023-05-10T11:41:00.765Z,84.49
2023-05-10T11:43:06.632Z,85.04
2023-05-10T11:45:10.785Z,84.22
2023-05-10T11:47:16.436Z,84.31
2023-05-10T11:49:20.036Z,85.12
2023-05-10T11:51:25.018Z,84.79
2023-05-10T11:53:29.183Z,84.50
2023-05-10T11:55:35.896Z,83.53
2023-05-10T11:57:42.190Z,83.72
2023-05-10T11:59:47.667Z,83.37
2023-05-10T12:01:51.239Z,83.29
2023-05-10T12:03:56.480Z,82.70
2023-05-10T12:06:00.865Z,81.74
2023-05-10T12:08:14.495Z,81.40
2023-05-10T12:10:19.149Z,81.27
2023-05-10T12:12:22.989Z,80.63
2023-05-10T12:14:26.484Z,80.40
2023-05-10T12:16:32.077Z,79.74
2023-05-10T12:18:35.900Z,79.36
2023-05-10T12:20:39.848Z,79.03
2023-05-10T12:22:43.319Z,77.73
2023-05-10T12:24:47.737Z,77.04
2023-05-10T12:26:52.460Z,76.98
2023-05-10T12:28:56.133Z,76.47
2023-05-10T12:31:01.155Z,74.09
2023-05-10T12:33:12.218Z,72.12
2023-05-10T12:35:16.185Z,71.25
2023-05-10T12:37:19.581Z,70.19
2023-05-10T12:39:23.032Z,70.28
2023-05-10T12:41:26.433Z,70.20
2023-05-10T12:43:30.236Z,68.10
2023-05-10T12:45:33.836Z,68.87
2023-05-10T12:47:38.055Z,68.14
2023-05-10T12:49:43.151Z,68.86
2023-05-10T12:51:46.510Z,68.80
2023-05-10T12:53:49.929Z,68.13
2023-05-10T12:55:53.386Z,68.21
2023-05-10T12:57:56.740Z,69.09
2023-05-10T13:00:00.212Z,69.80
2023-05-10T13:02:03.848Z,69.54
2023-05-10T13:04:07.277Z,68.67
2023-05-10T13:06:12.133Z,69.12
2023-05-10T13:08:15.657Z,70.08
2023-05-10T13:10:19.564Z,69.41
2023-05-10T13:12:23.174Z,68.91
2023-05-10T13:14:27.222Z,69.41
2023-05-10T13:16:30.880Z,69.36
2023-05-10T13:18:34.329Z,68.60
2023-05-10T13:20:38.036Z,68.85
2023-05-10T13:22:43.335Z,69.03
2023-05-10T13:24:46.786Z,68.83
2023-05-10T13:26:50.500Z,68.67
2023-05-10T13:28:53.871Z,69.18
2023-05-10T13:30:57.271Z,68.52
2023-05-10T13:33:00.921Z,66.54
2023-05-10T13:35:05.344Z,65.32
2023-05-10T13:37:08.735Z,64.75
2023-05-10T13:39:13.560Z,64.79
2023-05-10T13:41:16.964Z,62.79
2023-05-10T13:43:20.644Z,63.25
2023-05-10T13:45:24.249Z,62.07
2023-05-10T13:47:28.056Z,60.06
2023-05-10T13:49:31.481Z,58.52
2023-05-10T13:51:36.573Z,58.44
2023-05-10T13:53:40.339Z,58.93
2023-05-10T13:55:45.099Z,56.60
2023-05-10T13:57:48.682Z,56.50
2023-05-10T13:59:52.443Z,57.44
2023-05-10T14:01:55.886Z,58.11
2023-05-10T14:03:59.654Z,57.66
2023-05-10T14:06:03.461Z,57.98
2023-05-10T14:08:06.855Z,58.49
2023-05-10T14:10:10.796Z,57.58
2023-05-10T14:12:16.403Z,58.83
2023-05-10T14:14:19.852Z,59.53
2023-05-10T14:16:23.417Z,59.59
2023-05-10T14:18:27.140Z,59.21
2023-05-10T14:20:30.984Z,59.17
2023-05-10T14:22:34.456Z,60.55
2023-05-10T14:24:38.022Z,62.17
2023-05-10T14:26:41.500Z,64.18
2023-05-10T14:28:46.347Z,65.07
2023-05-10T14:30:50.003Z,65.68
2023-05-10T14:32:54.979Z,66.59
2023-05-10T14:34:58.510Z,67.44
2023-05-10T14:37:02.131Z,68.16
2023-05-10T14:39:05.964Z,68.58
2023-05-10T14:41:11.251Z,69.18
2023-05-10T14:43:15.345Z,69.22
2023-05-10T14:45:20.541Z,69.42
2023-05-10T14:47:24.157Z,69.85
2023-05-10T14:49:28.408Z,69.68
2023-05-10T14:51:32.701Z,69.43
2023-05-10T14:53:36.627Z,69.57
2023-05-10T14:55:40.324Z,69.68
2023-05-10T14:57:45.001Z,69.59
2023-05-10T14:59:49.014Z,69.40
2023-05-10T15:01:54.328Z,69.16
2023-05-10T15:03:57.887Z,69.06
2023-05-10T15:06:01.762Z,68.81
2023-05-10T15:08:05.440Z,68.52
2023-05-10T15:10:10.581Z,68.78
2023-05-10T15:12:14.238Z,69.23
2023-05-10T15:14:17.606Z,69.22
2023-05-10T15:16:21.213Z,69.34
2023-05-10T15:18:26.745Z,69.88
2023-05-10T15:20:30.256Z,69.81
2023-05-10T15:22:34.433Z,69.91
2023-05-10T15:24:38.033Z,70.25
2023-05-10T15:26:41.399Z,70.33
2023-05-10T15:28:44.944Z,70.26
2023-05-10T15:30:48.422Z,70.41
2023-05-10T15:32:51.847Z,70.26
2023-05-10T15:34:56.995Z,70.13
2023-05-10T15:37:00.453Z,70.12
2023-05-10T15:39:04.847Z,70.34
2023-05-10T15:41:08.206Z,70.24
2023-05-10T15:43:11.870Z,69.89
2023-05-10T15:45:16.203Z,70.13
2023-05-10T15:47:20.074Z,70.19
2023-05-10T15:49:23.591Z,69.24
2023-05-10T15:51:28.550Z,69.69
2023-05-10T15:53:32.002Z,70.87
2023-05-10T15:55:35.415Z,70.54
2023-05-10T15:57:38.864Z,70.42
2023-05-10T15:59:42.900Z,70.57
2023-05-10T16:01:46.410Z,70.89
2023-05-10T16:03:49.920Z,71.23
2023-05-10T16:05:53.739Z,71.57
2023-05-10T16:07:58.620Z,72.20
2023-05-10T16:10:04.046Z,72.50
2023-05-10T16:12:07.718Z,72.79
2023-05-10T16:14:11.172Z,73.09
2023-05-10T16:16:14.818Z,66.84
2023-05-10T16:18:18.705Z,65.34
2023-05-10T16:20:22.334Z,64.24
2023-05-10T16:22:28.838Z,64.16
2023-05-10T16:24:33.833Z,65.93
2023-05-10T16:26:41.002Z,66.58
2023-05-10T16:28:44.557Z,64.97
2023-05-10T16:30:48.000Z,64.65
2023-05-10T16:32:51.505Z,62.19
2023-05-10T16:34:54.964Z,64.31
2023-05-10T16:36:58.345Z,63.15
2023-05-10T16:39:01.806Z,62.01
2023-05-10T16:41:07.070Z,61.29
2023-05-10T16:43:10.532Z,61.89
2023-05-10T16:45:14.157Z,62.79
2023-05-10T16:47:17.817Z,61.91
2023-05-10T16:49:21.973Z,62.24
2023-05-10T16:51:26.645Z,62.02
2023-05-10T16:53:31.024Z,62.22
2023-05-10T16:55:34.430Z,62.23
2023-05-10T16:57:39.261Z,61.93
2023-05-10T16:59:42.731Z,63.49
2023-05-10T17:01:47.041Z,63.73
2023-05-10T17:03:50.635Z,63.93
2023-05-10T17:05:54.157Z,65.14
2023-05-10T17:07:58.127Z,65.01
2023-05-10T17:10:01.620Z,65.07
2023-05-10T17:12:05.241Z,65.44
2023-05-10T17:14:10.268Z,65.29
2023-05-10T17:16:13.848Z,66.01
2023-05-10T17:18:18.130Z,66.26
2023-05-10T17:20:21.984Z,66.31
2023-05-10T17:22:25.656Z,66.81
2023-05-10T17:24:29.773Z,66.96
2023-05-10T17:26:34.524Z,67.58
2023-05-10T17:28:37.968Z,66.94
2023-05-10T17:30:42.871Z,66.95
2023-05-10T17:32:46.277Z,66.02
2023-05-10T17:34:49.735Z,65.88
2023-05-10T17:36:53.686Z,65.53
2023-05-10T17:38:57.139Z,65.30
2023-05-10T17:41:00.703Z,65.40
2023-05-10T17:43:04.480Z,65.14
2023-05-10T17:45:09.027Z,65.09
2023-05-10T17:47:14.761Z,65.40
2023-05-10T17:49:18.235Z,66.76
2023-05-10T17:51:21.704Z,67.40
2023-05-10T17:53:25.871Z,68.12
2023-05-10T17:55:30.745Z,67.75
2023-05-10T17:57:36.670Z,67.32
2023-05-10T17:59:40.091Z,66.91
2023-05-10T18:01:43.504Z,67.06
2023-05-10T18:03:50.059Z,66.97
2023-05-10T18:05:55.148Z,67.20
2023-05-10T18:07:58.641Z,67.48
2023-05-10T18:10:02.074Z,67.24
2023-05-10T18:12:06.631Z,67.55
2023-05-10T18:14:10.197Z,68.03
2023-05-10T18:16:13.708Z,68.34
2023-05-10T18:18:17.553Z,68.43
2023-05-10T18:20:22.483Z,68.31
2023-05-10T18:22:27.096Z,68.65
2023-05-10T18:26:36.962Z,68.99
2023-05-10T18:28:40.471Z,69.15
2023-05-10T18:30:44.199Z,69.40
2023-05-10T18:32:47.803Z,69.78
2023-05-10T18:34:51.639Z,70.30
2023-05-10T18:36:57.299Z,70.90
2023-05-10T18:39:00.900Z,71.26
2023-05-10T18:41:04.708Z,71.74
2023-05-10T18:43:08.903Z,71.79
2023-05-10T18:45:13.132Z,72.35
2023-05-10T18:47:16.872Z,72.71
2023-05-10T18:49:20.424Z,73.08
2023-05-10T18:51:25.037Z,73.51
2023-05-10T18:53:30.043Z,73.84
2023-05-10T18:55:33.650Z,74.96
2023-05-10T18:57:41.077Z,76.16
2023-05-10T18:59:44.711Z,76.85
2023-05-10T19:01:50.880Z,77.04
2023-05-10T19:03:54.833Z,77.09
2023-05-10T19:05:58.240Z,77.12
2023-05-10T19:08:01.668Z,77.31
2023-05-10T19:10:07.774Z,77.30
2023-05-10T19:12:11.214Z,77.31
2023-05-10T19:14:14.596Z,77.50
2023-05-10T19:16:18.267Z,77.46
2023-05-10T19:18:21.837Z,77.95
2023-05-10T19:20:25.645Z,79.06
2023-05-10T19:24:36.373Z,79.26
2023-05-10T19:26:41.200Z,79.65
2023-05-10T19:28:45.230Z,80.41
2023-05-10T19:30:49.623Z,80.56
2023-05-10T19:32:53.094Z,81.09
2023-05-10T19:34:56.668Z,80.96
2023-05-10T19:37:00.124Z,81.01
2023-05-10T19:39:03.613Z,80.79
2023-05-10T19:41:07.042Z,81.18
2023-05-10T19:43:11.837Z,81.51
2023-05-10T19:45:16.034Z,81.80
2023-05-10T19:47:20.236Z,81.31
2023-05-10T19:49:23.721Z,81.73
2023-05-10T19:51:27.178Z,81.70
2023-05-10T19:53:31.115Z,81.40
2023-05-10T19:55:36.293Z,81.32
2023-05-10T19:57:39.712Z,81.23
2023-05-10T19:59:44.524Z,81.54
2023-05-10T20:01:47.925Z,82.04
2023-05-10T20:03:51.608Z,82.09
2023-05-10T20:05:55.370Z,82.48
2023-05-10T20:07:58.784Z,82.93
2023-05-10T20:10:02.827Z,83.27
2023-05-10T20:12:06.253Z,83.84
2023-05-10T20:14:10.133Z,84.29
2023-05-10T20:16:14.969Z,84.57
2023-05-10T20:18:18.479Z,84.55
2023-05-10T20:20:22.288Z,84.41
2023-05-10T20:22:26.117Z,84.74
2023-05-10T20:24:29.501Z,84.65
2023-05-10T20:26:32.866Z,84.64
2023-05-10T20:28:36.564Z,84.69
2023-05-10T20:30:40.857Z,84.51
2023-05-10T20:32:45.743Z,84.52
2023-05-10T20:34:49.664Z,84.38
2023-05-10T20:36:53.046Z,84.21
2023-05-10T20:38:56.553Z,84.69
2023-05-10T20:40:59.922Z,84.59
2023-05-10T20:43:03.510Z,84.71
2023-05-10T20:45:08.126Z,84.59
2023-05-10T20:47:12.684Z,84.53
2023-05-10T20:49:18.050Z,84.81
2023-05-10T20:51:21.456Z,84.81
2023-05-10T20:53:24.827Z,85.12
2023-05-10T20:55:28.701Z,85.25
2023-05-10T20:57:32.106Z,85.41
2023-05-10T20:59:35.714Z,85.20
2023-05-10T21:01:39.132Z,85.55
2023-05-10T21:03:42.612Z,85.58
2023-05-10T21:05:47.421Z,85.24
2023-05-10T21:07:54.059Z,85.22
2023-05-10T21:09:57.461Z,85.38
2023-05-10T21:12:03.165Z,85.29
2023-05-10T21:14:07.773Z,85.40
2023-05-10T21:16:11.193Z,85.34
2023-05-10T21:18:14.660Z,85.59
2023-05-10T21:20:18.430Z,85.37
2023-05-10T21:22:23.444Z,85.58
2023-05-10T21:24:29.875Z,85.81
2023-05-10T21:26:33.313Z,86.04
2023-05-10T21:28:39.055Z,86.33
2023-05-10T21:30:43.578Z,86.49
2023-05-10T21:32:47.254Z,86.55
2023-05-10T21:34:50.724Z,86.58
2023-05-10T21:36:55.509Z,87.05
2023-05-10T21:39:00.447Z,87.09
2023-05-10T21:41:08.015Z,87.55
2023-05-10T21:43:12.048Z,87.58
2023-05-10T21:45:15.545Z,87.60
2023-05-10T21:47:19.121Z,87.57
2023-05-10T21:49:22.924Z,87.40
2023-05-10T21:51:26.362Z,87.11
2023-05-10T21:53:30.056Z,87.03
2023-05-10T21:55:35.048Z,87.09
2023-05-10T21:57:38.470Z,86.73
2023-05-10T21:59:41.930Z,87.09
2023-05-10T22:01:45.491Z,87.14
2023-05-10T22:03:49.102Z,87.46
2023-05-10T22:05:52.556Z,87.67
2023-05-10T22:07:55.932Z,87.89
2023-05-10T22:09:59.921Z,87.84
2023-05-10T22:12:04.897Z,87.83
2023-05-10T22:14:08.252Z,87.66
2023-05-10T22:16:11.867Z,87.56
2023-05-10T22:18:15.616Z,87.57
2023-05-10T22:20:19.514Z,87.49
2023-05-10T22:22:23.420Z,87.99
2023-05-10T22:24:27.032Z,88.22
2023-05-10T22:26:30.388Z,88.75
2023-05-10T22:28:35.174Z,89.24
2023-05-10T22:30:38.901Z,89.08
2023-05-10T22:32:42.416Z,88.92
2023-05-10T22:34:45.866Z,88.46
2023-05-10T22:36:50.526Z,88.14
2023-05-10T22:38:53.998Z,87.89
2023-05-10T22:40:57.390Z,87.74
2023-05-10T22:43:00.771Z,87.18
2023-05-10T22:45:06.325Z,86.97
2023-05-10T22:47:09.785Z,86.92
2023-05-10T22:49:13.441Z,86.68
2023-05-10T22:51:16.935Z,86.79
2023-05-10T22:53:20.309Z,86.79
2023-05-10T22:55:23.968Z,85.87
2023-05-10T22:57:27.801Z,85.81
2023-05-10T22:59:31.428Z,85.76
2023-05-10T23:01:36.470Z,85.54
2023-05-10T23:03:40.101Z,85.38
2023-05-10T23:05:43.539Z,85.59
2023-05-10T23:07:48.453Z,85.35
2023-05-10T23:09:52.354Z,85.37
2023-05-10T23:11:55.852Z,85.15
2023-05-10T23:13:59.332Z,85.36
2023-05-10T23:16:06.322Z,85.56
2023-05-10T23:18:11.238Z,85.97
2023-05-10T23:20:14.719Z,86.67
2023-05-10T23:22:18.214Z,86.90
2023-05-10T23:24:21.631Z,87.34
2023-05-10T23:26:25.087Z,87.54
2023-05-10T23:28:28.751Z,87.58
2023-05-10T23:30:32.806Z,87.65
2023-05-10T23:32:36.407Z,87.88
2023-05-10T23:34:41.269Z,87.70
2023-05-10T23:36:44.758Z,87.61
2023-05-10T23:38:48.154Z,87.91
2023-05-10T23:40:52.251Z,87.47
2023-05-10T23:42:55.652Z,87.72
2023-05-10T23:44:59.231Z,87.92
2023-05-10T23:47:02.600Z,87.63
2023-05-10T23:49:06.144Z,87.85
2023-05-10T23:51:11.008Z,87.74
2023-05-10T23:53:14.600Z,87.70
2023-05-10T23:55:18.206Z,87.81
2023-05-10T23:57:21.856Z,87.85
2023-05-10T23:59:25.526Z,87.25
